sensor_id;sensor_type;location;lat;lon;timestamp;pressure;altitude;pressure_sealevel;temperature;humidity
6423;BME280;3244;42.708;23.288;2023-05-09T00:00:30;95317.91;;;15.12;77.01
6423;BME280;3244;42.708;23.288;2023-05-09T00:02:57;95310.28;;;15.10;76.69
6423;BME280;3244;42.708;23.288;2023-05-09T00:05:24;95311.28;;;15.08;77.36
6423;BME280;3244;42.708;23.288;2023-05-09T00:07:50;95315.72;;;15.04;76.97
6423;BME280;3244;42.708;23.288;2023-05-09T00:10:17;95321.53;;;15.08;77.43
6423;BME280;3244;42.708;23.288;2023-05-09T00:12:44;95324.16;;;15.06;77.11
6423;BME280;3244;42.708;23.288;2023-05-09T00:15:12;95324.47;;;15.17;76.78
6423;BME280;3244;42.708;23.288;2023-05-09T00:17:39;95318.06;;;15.09;77.13
6423;BME280;3244;42.708;23.288;2023-05-09T00:20:07;95318.78;;;15.11;77.04
6423;BME280;3244;42.708;23.288;2023-05-09T00:22:37;95314.56;;;15.10;76.93
6423;BME280;3244;42.708;23.288;2023-05-09T00:25:05;95319.75;;;15.27;77.09
6423;BME280;3244;42.708;23.288;2023-05-09T00:27:32;95311.09;;;15.29;77.14
6423;BME280;3244;42.708;23.288;2023-05-09T00:29:58;95310.47;;;15.24;76.96
6423;BME280;3244;42.708;23.288;2023-05-09T00:32:26;95302.31;;;15.16;76.34
6423;BME280;3244;42.708;23.288;2023-05-09T00:34:54;95309.88;;;15.19;76.51
6423;BME280;3244;42.708;23.288;2023-05-09T00:37:21;95303.53;;;15.09;76.63
6423;BME280;3244;42.708;23.288;2023-05-09T00:39:47;95300.44;;;15.03;77.03
6423;BME280;3244;42.708;23.288;2023-05-09T00:42:14;95305.75;;;14.98;77.61
6423;BME280;3244;42.708;23.288;2023-05-09T00:44:41;95306.59;;;14.98;76.93
6423;BME280;3244;42.708;23.288;2023-05-09T00:47:08;95302.09;;;15.04;77.36
6423;BME280;3244;42.708;23.288;2023-05-09T00:49:36;95293.53;;;15.22;76.77
6423;BME280;3244;42.708;23.288;2023-05-09T00:52:03;95297.41;;;15.12;76.91
6423;BME280;3244;42.708;23.288;2023-05-09T00:54:30;95296.78;;;14.89;77.15
6423;BME280;3244;42.708;23.288;2023-05-09T00:56:57;95293.91;;;14.78;77.49
6423;BME280;3244;42.708;23.288;2023-05-09T00:59:24;95279.59;;;14.74;77.65
6423;BME280;3244;42.708;23.288;2023-05-09T01:01:51;95288.69;;;14.61;77.85
6423;BME280;3244;42.708;23.288;2023-05-09T01:04:18;95301.91;;;14.71;78.26
6423;BME280;3244;42.708;23.288;2023-05-09T01:06:52;95300.66;;;14.60;78.32
6423;BME280;3244;42.708;23.288;2023-05-09T01:09:27;95289.59;;;14.79;77.21
6423;BME280;3244;42.708;23.288;2023-05-09T01:12:17;95293.75;;;14.81;77.57
6423;BME280;3244;42.708;23.288;2023-05-09T01:14:49;95299.13;;;14.94;76.89
6423;BME280;3244;42.708;23.288;2023-05-09T01:17:37;95299.78;;;14.80;76.89
6423;BME280;3244;42.708;23.288;2023-05-09T01:20:12;95302.50;;;14.94;76.67
6423;BME280;3244;42.708;23.288;2023-05-09T01:22:45;95298.97;;;14.97;76.39
6423;BME280;3244;42.708;23.288;2023-05-09T01:25:48;95305.97;;;14.93;76.24
6423;BME280;3244;42.708;23.288;2023-05-09T01:28:33;95306.44;;;15.02;76.18
6423;BME280;3244;42.708;23.288;2023-05-09T01:31:02;95303.69;;;15.06;75.95
6423;BME280;3244;42.708;23.288;2023-05-09T01:33:31;95311.13;;;15.11;75.72
6423;BME280;3244;42.708;23.288;2023-05-09T01:36:04;95306.81;;;15.11;75.29
6423;BME280;3244;42.708;23.288;2023-05-09T01:38:34;95302.41;;;15.15;75.30
6423;BME280;3244;42.708;23.288;2023-05-09T01:41:04;95303.81;;;15.03;75.44
6423;BME280;3244;42.708;23.288;2023-05-09T01:43:33;95303.88;;;15.02;75.56
6423;BME280;3244;42.708;23.288;2023-05-09T01:46:04;95306.44;;;15.02;75.71
6423;BME280;3244;42.708;23.288;2023-05-09T01:48:30;95301.59;;;14.95;76.06
6423;BME280;3244;42.708;23.288;2023-05-09T01:50:59;95307.84;;;14.90;76.30
6423;BME280;3244;42.708;23.288;2023-05-09T01:53:27;95307.50;;;14.97;75.88
6423;BME280;3244;42.708;23.288;2023-05-09T01:55:55;95313.66;;;14.93;75.79
6423;BME280;3244;42.708;23.288;2023-05-09T01:58:24;95308.25;;;15.00;75.86
6423;BME280;3244;42.708;23.288;2023-05-09T02:00:51;95312.88;;;14.91;75.84
6423;BME280;3244;42.708;23.288;2023-05-09T02:03:21;95310.81;;;15.00;75.38
6423;BME280;3244;42.708;23.288;2023-05-09T02:05:49;95312.47;;;15.01;75.86
6423;BME280;3244;42.708;23.288;2023-05-09T02:08:17;95307.63;;;14.94;75.56
6423;BME280;3244;42.708;23.288;2023-05-09T02:10:46;95312.00;;;14.92;75.54
6423;BME280;3244;42.708;23.288;2023-05-09T02:13:13;95312.88;;;14.91;75.54
6423;BME280;3244;42.708;23.288;2023-05-09T02:15:41;95310.31;;;14.91;76.35
6423;BME280;3244;42.708;23.288;2023-05-09T02:18:08;95304.16;;;14.95;76.05
6423;BME280;3244;42.708;23.288;2023-05-09T02:20:36;95304.78;;;15.01;75.65
6423;BME280;3244;42.708;23.288;2023-05-09T02:23:03;95302.84;;;15.06;75.41
6423;BME280;3244;42.708;23.288;2023-05-09T02:25:31;95306.91;;;15.10;74.98
6423;BME280;3244;42.708;23.288;2023-05-09T02:27:58;95307.00;;;15.08;74.66
6423;BME280;3244;42.708;23.288;2023-05-09T02:30:28;95313.09;;;15.06;75.01
6423;BME280;3244;42.708;23.288;2023-05-09T02:33:01;95310.47;;;15.07;75.17
6423;BME280;3244;42.708;23.288;2023-05-09T02:35:28;95306.81;;;15.11;74.68
6423;BME280;3244;42.708;23.288;2023-05-09T02:37:58;95315.19;;;15.15;74.49
6423;BME280;3244;42.708;23.288;2023-05-09T02:40:26;95305.47;;;15.04;75.25
6423;BME280;3244;42.708;23.288;2023-05-09T02:42:53;95308.19;;;15.18;74.39
6423;BME280;3244;42.708;23.288;2023-05-09T02:45:20;95307.69;;;15.29;73.67
6423;BME280;3244;42.708;23.288;2023-05-09T02:47:47;95310.63;;;15.21;73.72
6423;BME280;3244;42.708;23.288;2023-05-09T02:50:13;95307.66;;;15.12;74.42
6423;BME280;3244;42.708;23.288;2023-05-09T02:52:40;95310.38;;;15.09;74.66
6423;BME280;3244;42.708;23.288;2023-05-09T02:55:09;95304.44;;;15.08;74.95
6423;BME280;3244;42.708;23.288;2023-05-09T02:57:35;95309.03;;;15.19;74.53
6423;BME280;3244;42.708;23.288;2023-05-09T03:00:03;95305.97;;;14.93;74.52
6423;BME280;3244;42.708;23.288;2023-05-09T03:02:33;95316.81;;;14.98;74.89
6423;BME280;3244;42.708;23.288;2023-05-09T03:04:59;95304.66;;;15.04;74.90
6423;BME280;3244;42.708;23.288;2023-05-09T03:07:26;95317.09;;;14.92;75.03
6423;BME280;3244;42.708;23.288;2023-05-09T03:09:53;95319.03;;;14.87;75.33
6423;BME280;3244;42.708;23.288;2023-05-09T03:12:21;95324.16;;;14.87;75.64
6423;BME280;3244;42.708;23.288;2023-05-09T03:14:48;95329.13;;;14.90;75.99
6423;BME280;3244;42.708;23.288;2023-05-09T03:17:15;95330.78;;;14.91;76.18
6423;BME280;3244;42.708;23.288;2023-05-09T03:19:45;95316.47;;;14.87;76.21
6423;BME280;3244;42.708;23.288;2023-05-09T03:22:12;95338.41;;;14.93;76.16
6423;BME280;3244;42.708;23.288;2023-05-09T03:24:39;95345.38;;;14.89;76.72
6423;BME280;3244;42.708;23.288;2023-05-09T03:27:05;95354.72;;;14.90;77.58
6423;BME280;3244;42.708;23.288;2023-05-09T03:29:33;95344.06;;;15.00;77.33
6423;BME280;3244;42.708;23.288;2023-05-09T03:32:00;95344.63;;;15.06;77.42
6423;BME280;3244;42.708;23.288;2023-05-09T03:34:27;95353.75;;;14.93;78.49
6423;BME280;3244;42.708;23.288;2023-05-09T03:36:53;95352.88;;;14.75;79.29
6423;BME280;3244;42.708;23.288;2023-05-09T03:39:20;95354.75;;;14.53;80.91
6423;BME280;3244;42.708;23.288;2023-05-09T03:41:47;95364.53;;;14.43;81.82
6423;BME280;3244;42.708;23.288;2023-05-09T03:44:13;95364.09;;;14.34;82.34
6423;BME280;3244;42.708;23.288;2023-05-09T03:46:41;95364.91;;;14.34;82.42
6423;BME280;3244;42.708;23.288;2023-05-09T03:49:08;95358.44;;;14.46;81.98
6423;BME280;3244;42.708;23.288;2023-05-09T03:51:35;95357.56;;;14.26;82.56
6423;BME280;3244;42.708;23.288;2023-05-09T03:54:01;95357.81;;;14.20;82.43
6423;BME280;3244;42.708;23.288;2023-05-09T03:56:28;95357.69;;;14.23;82.05
6423;BME280;3244;42.708;23.288;2023-05-09T03:58:55;95358.47;;;14.25;82.35
6423;BME280;3244;42.708;23.288;2023-05-09T04:01:21;95358.22;;;14.11;82.74
6423;BME280;3244;42.708;23.288;2023-05-09T04:03:49;95356.88;;;14.03;83.90
6423;BME280;3244;42.708;23.288;2023-05-09T04:06:16;95364.47;;;14.24;82.04
6423;BME280;3244;42.708;23.288;2023-05-09T04:08:43;95358.59;;;14.22;82.34
6423;BME280;3244;42.708;23.288;2023-05-09T04:11:10;95356.72;;;14.07;82.28
6423;BME280;3244;42.708;23.288;2023-05-09T04:13:37;95362.81;;;14.23;80.64
6423;BME280;3244;42.708;23.288;2023-05-09T04:16:04;95357.44;;;14.29;80.45
6423;BME280;3244;42.708;23.288;2023-05-09T04:18:30;95368.88;;;14.41;79.76
6423;BME280;3244;42.708;23.288;2023-05-09T04:20:59;95368.69;;;14.46;79.75
6423;BME280;3244;42.708;23.288;2023-05-09T04:23:25;95375.47;;;14.47;79.29
6423;BME280;3244;42.708;23.288;2023-05-09T04:25:52;95372.25;;;14.42;79.68
6423;BME280;3244;42.708;23.288;2023-05-09T04:28:19;95379.88;;;14.43;79.74
6423;BME280;3244;42.708;23.288;2023-05-09T04:30:46;95375.84;;;14.58;79.38
6423;BME280;3244;42.708;23.288;2023-05-09T04:33:13;95358.75;;;14.77;78.51
6423;BME280;3244;42.708;23.288;2023-05-09T04:35:39;95368.31;;;15.10;77.82
6423;BME280;3244;42.708;23.288;2023-05-09T04:38:07;95343.50;;;15.12;76.91
6423;BME280;3244;42.708;23.288;2023-05-09T04:40:34;95377.88;;;15.25;76.64
6423;BME280;3244;42.708;23.288;2023-05-09T04:43:01;95373.78;;;15.21;76.70
6423;BME280;3244;42.708;23.288;2023-05-09T04:45:28;95380.91;;;15.14;77.26
6423;BME280;3244;42.708;23.288;2023-05-09T04:47:55;95376.19;;;15.07;76.79
6423;BME280;3244;42.708;23.288;2023-05-09T04:50:21;95379.63;;;15.06;76.64
6423;BME280;3244;42.708;23.288;2023-05-09T04:52:48;95375.91;;;14.75;77.96
6423;BME280;3244;42.708;23.288;2023-05-09T04:55:16;95370.97;;;14.71;78.38
6423;BME280;3244;42.708;23.288;2023-05-09T04:57:43;95371.19;;;14.85;77.98
6423;BME280;3244;42.708;23.288;2023-05-09T05:00:10;95371.34;;;15.01;77.18
6423;BME280;3244;42.708;23.288;2023-05-09T05:02:38;95376.00;;;15.10;76.64
6423;BME280;3244;42.708;23.288;2023-05-09T05:05:07;95378.25;;;14.98;76.70
6423;BME280;3244;42.708;23.288;2023-05-09T05:07:33;95377.97;;;14.86;77.12
6423;BME280;3244;42.708;23.288;2023-05-09T05:10:00;95360.13;;;14.66;77.36
6423;BME280;3244;42.708;23.288;2023-05-09T05:12:28;95362.16;;;14.78;76.75
6423;BME280;3244;42.708;23.288;2023-05-09T05:14:55;95374.03;;;14.79;76.45
6423;BME280;3244;42.708;23.288;2023-05-09T05:17:21;95369.94;;;14.75;75.87
6423;BME280;3244;42.708;23.288;2023-05-09T05:19:49;95369.66;;;14.62;77.53
6423;BME280;3244;42.708;23.288;2023-05-09T05:22:15;95372.56;;;14.73;76.84
6423;BME280;3244;42.708;23.288;2023-05-09T05:24:42;95366.63;;;14.73;77.07
6423;BME280;3244;42.708;23.288;2023-05-09T05:27:09;95356.47;;;14.71;76.43
6423;BME280;3244;42.708;23.288;2023-05-09T05:29:37;95373.53;;;14.89;76.21
6423;BME280;3244;42.708;23.288;2023-05-09T05:32:03;95376.31;;;15.04;75.66
6423;BME280;3244;42.708;23.288;2023-05-09T05:34:30;95384.44;;;15.12;74.77
6423;BME280;3244;42.708;23.288;2023-05-09T05:36:57;95380.09;;;15.50;73.56
6423;BME280;3244;42.708;23.288;2023-05-09T05:39:23;95383.25;;;15.91;72.00
6423;BME280;3244;42.708;23.288;2023-05-09T05:41:50;95383.72;;;15.99;70.72
6423;BME280;3244;42.708;23.288;2023-05-09T05:44:17;95380.53;;;15.94;70.41
6423;BME280;3244;42.708;23.288;2023-05-09T05:46:45;95382.34;;;15.92;70.02
6423;BME280;3244;42.708;23.288;2023-05-09T05:49:11;95382.78;;;16.17;69.68
6423;BME280;3244;42.708;23.288;2023-05-09T05:51:38;95382.06;;;15.98;69.51
6423;BME280;3244;42.708;23.288;2023-05-09T05:54:05;95384.66;;;15.62;70.23
6423;BME280;3244;42.708;23.288;2023-05-09T05:56:32;95389.84;;;15.60;70.94
6423;BME280;3244;42.708;23.288;2023-05-09T05:58:59;95382.56;;;15.70;70.31
6423;BME280;3244;42.708;23.288;2023-05-09T06:01:25;95385.66;;;15.94;69.52
6423;BME280;3244;42.708;23.288;2023-05-09T06:03:53;95381.91;;;16.34;68.41
6423;BME280;3244;42.708;23.288;2023-05-09T06:06:20;95384.72;;;16.80;66.65
6423;BME280;3244;42.708;23.288;2023-05-09T06:08:47;95386.38;;;16.81;65.43
6423;BME280;3244;42.708;23.288;2023-05-09T06:11:14;95386.19;;;16.68;65.47
6423;BME280;3244;42.708;23.288;2023-05-09T06:13:41;95385.91;;;16.57;66.27
6423;BME280;3244;42.708;23.288;2023-05-09T06:16:08;95382.53;;;16.39;66.16
6423;BME280;3244;42.708;23.288;2023-05-09T06:18:35;95377.19;;;16.92;64.58
6423;BME280;3244;42.708;23.288;2023-05-09T06:21:06;95373.91;;;20.06;54.65
6423;BME280;3244;42.708;23.288;2023-05-09T06:23:32;95374.09;;;21.04;50.73
6423;BME280;3244;42.708;23.288;2023-05-09T06:26:01;95364.41;;;23.28;45.59
6423;BME280;3244;42.708;23.288;2023-05-09T06:28:27;95369.09;;;25.52;40.82
6423;BME280;3244;42.708;23.288;2023-05-09T06:30:54;95368.19;;;26.96;37.95
6423;BME280;3244;42.708;23.288;2023-05-09T06:33:21;95368.56;;;26.25;38.94
6423;BME280;3244;42.708;23.288;2023-05-09T06:35:48;95360.91;;;26.43;37.89
6423;BME280;3244;42.708;23.288;2023-05-09T06:38:16;95351.91;;;28.46;34.19
6423;BME280;3244;42.708;23.288;2023-05-09T06:40:42;95355.56;;;30.85;30.79
6423;BME280;3244;42.708;23.288;2023-05-09T06:43:09;95356.47;;;31.47;28.66
6423;BME280;3244;42.708;23.288;2023-05-09T06:45:35;95356.16;;;32.27;27.66
6423;BME280;3244;42.708;23.288;2023-05-09T06:48:02;95349.75;;;30.09;30.54
6423;BME280;3244;42.708;23.288;2023-05-09T06:50:29;95357.34;;;29.54;31.55
6423;BME280;3244;42.708;23.288;2023-05-09T06:52:56;95360.13;;;25.65;37.72
6423;BME280;3244;42.708;23.288;2023-05-09T06:55:24;95342.31;;;22.79;44.88
6423;BME280;3244;42.708;23.288;2023-05-09T06:57:51;95367.28;;;21.03;49.26
6423;BME280;3244;42.708;23.288;2023-05-09T07:00:18;95367.00;;;19.54;52.85
6423;BME280;3244;42.708;23.288;2023-05-09T07:02:45;95362.25;;;19.61;53.35
6423;BME280;3244;42.708;23.288;2023-05-09T07:05:11;95363.44;;;20.60;50.50
6423;BME280;3244;42.708;23.288;2023-05-09T07:07:38;95359.19;;;20.21;51.44
6423;BME280;3244;42.708;23.288;2023-05-09T07:10:06;95359.84;;;18.90;54.53
6423;BME280;3244;42.708;23.288;2023-05-09T07:12:35;95358.91;;;18.20;57.05
6423;BME280;3244;42.708;23.288;2023-05-09T07:15:01;95367.00;;;17.84;58.95
6423;BME280;3244;42.708;23.288;2023-05-09T07:17:29;95357.06;;;17.62;60.24
6423;BME280;3244;42.708;23.288;2023-05-09T07:19:55;95363.75;;;17.34;60.40
6423;BME280;3244;42.708;23.288;2023-05-09T07:22:22;95364.47;;;17.07;61.59
6423;BME280;3244;42.708;23.288;2023-05-09T07:24:49;95366.59;;;17.30;61.29
6423;BME280;3244;42.708;23.288;2023-05-09T07:27:16;95372.38;;;17.33;61.07
6423;BME280;3244;42.708;23.288;2023-05-09T07:29:44;95371.31;;;17.22;60.79
6423;BME280;3244;42.708;23.288;2023-05-09T07:32:10;95369.06;;;17.47;60.52
6423;BME280;3244;42.708;23.288;2023-05-09T07:34:37;95358.91;;;18.20;58.73
6423;BME280;3244;42.708;23.288;2023-05-09T07:37:04;95363.97;;;19.75;54.01
6423;BME280;3244;42.708;23.288;2023-05-09T07:39:30;95362.06;;;20.92;50.82
6423;BME280;3244;42.708;23.288;2023-05-09T07:41:57;95366.91;;;20.08;52.08
6423;BME280;3244;42.708;23.288;2023-05-09T07:44:24;95369.47;;;19.42;53.89
6423;BME280;3244;42.708;23.288;2023-05-09T07:46:52;95366.00;;;19.01;55.36
6423;BME280;3244;42.708;23.288;2023-05-09T07:49:19;95371.91;;;19.03;55.03
6423;BME280;3244;42.708;23.288;2023-05-09T07:51:46;95373.75;;;18.87;55.21
6423;BME280;3244;42.708;23.288;2023-05-09T07:54:13;95371.00;;;18.76;55.65
6423;BME280;3244;42.708;23.288;2023-05-09T07:56:39;95381.16;;;18.21;57.32
6423;BME280;3244;42.708;23.288;2023-05-09T07:59:06;95376.69;;;17.64;58.93
6423;BME280;3244;42.708;23.288;2023-05-09T08:01:33;95376.72;;;17.02;60.68
6423;BME280;3244;42.708;23.288;2023-05-09T08:04:02;95374.38;;;17.13;60.83
6423;BME280;3244;42.708;23.288;2023-05-09T08:06:30;95369.16;;;17.30;60.03
6423;BME280;3244;42.708;23.288;2023-05-09T08:08:56;95378.19;;;17.21;59.83
6423;BME280;3244;42.708;23.288;2023-05-09T08:11:23;95376.94;;;16.97;61.13
6423;BME280;3244;42.708;23.288;2023-05-09T08:13:50;95372.47;;;17.00;61.14
6423;BME280;3244;42.708;23.288;2023-05-09T08:16:16;95371.41;;;17.05;61.32
6423;BME280;3244;42.708;23.288;2023-05-09T08:18:43;95375.28;;;17.43;60.92
6423;BME280;3244;42.708;23.288;2023-05-09T08:21:11;95370.03;;;18.06;58.71
6423;BME280;3244;42.708;23.288;2023-05-09T08:23:38;95370.06;;;18.49;57.88
6423;BME280;3244;42.708;23.288;2023-05-09T08:26:05;95371.91;;;18.89;55.76
6423;BME280;3244;42.708;23.288;2023-05-09T08:28:32;95368.13;;;19.90;53.24
6423;BME280;3244;42.708;23.288;2023-05-09T08:30:59;95367.78;;;21.93;47.62
6423;BME280;3244;42.708;23.288;2023-05-09T08:33:25;95372.06;;;22.40;46.18
6423;BME280;3244;42.708;23.288;2023-05-09T08:35:52;95360.19;;;21.79;47.66
6423;BME280;3244;42.708;23.288;2023-05-09T08:38:22;95366.13;;;21.92;47.46
6423;BME280;3244;42.708;23.288;2023-05-09T08:40:49;95370.19;;;21.24;49.22
6423;BME280;3244;42.708;23.288;2023-05-09T08:43:15;95378.25;;;20.05;52.52
6423;BME280;3244;42.708;23.288;2023-05-09T08:45:45;95384.00;;;19.30;53.79
6423;BME280;3244;42.708;23.288;2023-05-09T08:48:14;95369.69;;;18.83;56.20
6423;BME280;3244;42.708;23.288;2023-05-09T08:50:41;95369.97;;;18.93;55.20
6423;BME280;3244;42.708;23.288;2023-05-09T08:53:08;95362.22;;;19.88;52.63
6423;BME280;3244;42.708;23.288;2023-05-09T08:55:37;95363.59;;;21.68;46.97
6423;BME280;3244;42.708;23.288;2023-05-09T08:58:03;95362.97;;;21.64;45.84
6423;BME280;3244;42.708;23.288;2023-05-09T09:00:32;95355.13;;;22.47;44.39
6423;BME280;3244;42.708;23.288;2023-05-09T09:03:01;95366.75;;;22.42;43.49
6423;BME280;3244;42.708;23.288;2023-05-09T09:05:29;95362.25;;;21.62;44.99
6423;BME280;3244;42.708;23.288;2023-05-09T09:07:57;95374.94;;;21.05;46.01
6423;BME280;3244;42.708;23.288;2023-05-09T09:10:25;95363.78;;;21.04;46.51
6423;BME280;3244;42.708;23.288;2023-05-09T09:12:56;95361.69;;;21.10;46.38
6423;BME280;3244;42.708;23.288;2023-05-09T09:15:26;95355.66;;;21.34;46.19
6423;BME280;3244;42.708;23.288;2023-05-09T09:17:54;95362.47;;;20.99;46.48
6423;BME280;3244;42.708;23.288;2023-05-09T09:20:22;95367.16;;;20.56;47.59
6423;BME280;3244;42.708;23.288;2023-05-09T09:22:54;95361.47;;;19.73;49.29
6423;BME280;3244;42.708;23.288;2023-05-09T09:25:22;95357.75;;;18.82;51.91
6423;BME280;3244;42.708;23.288;2023-05-09T09:27:49;95365.66;;;18.07;54.28
6423;BME280;3244;42.708;23.288;2023-05-09T09:30:17;95357.59;;;18.13;55.02
6423;BME280;3244;42.708;23.288;2023-05-09T09:32:44;95361.78;;;18.29;54.28
6423;BME280;3244;42.708;23.288;2023-05-09T09:35:11;95359.50;;;17.95;54.73
6423;BME280;3244;42.708;23.288;2023-05-09T09:37:39;95353.78;;;17.90;55.38
6423;BME280;3244;42.708;23.288;2023-05-09T09:40:08;95359.25;;;17.70;55.48
6423;BME280;3244;42.708;23.288;2023-05-09T09:42:42;95354.59;;;17.60;56.40
6423;BME280;3244;42.708;23.288;2023-05-09T09:45:10;95357.47;;;17.24;57.81
6423;BME280;3244;42.708;23.288;2023-05-09T09:47:39;95368.56;;;17.09;57.87
6423;BME280;3244;42.708;23.288;2023-05-09T09:50:11;95370.66;;;17.03;57.82
6423;BME280;3244;42.708;23.288;2023-05-09T09:52:42;95373.72;;;16.93;58.28
6423;BME280;3244;42.708;23.288;2023-05-09T09:55:10;95364.34;;;16.92;59.13
6423;BME280;3244;42.708;23.288;2023-05-09T09:57:37;95367.59;;;17.12;59.23
6423;BME280;3244;42.708;23.288;2023-05-09T10:00:09;95361.44;;;17.14;59.32
6423;BME280;3244;42.708;23.288;2023-05-09T10:02:45;95366.25;;;17.20;59.69
6423;BME280;3244;42.708;23.288;2023-05-09T10:05:17;95358.44;;;17.38;59.41
6423;BME280;3244;42.708;23.288;2023-05-09T10:07:44;95359.44;;;17.51;58.61
6423;BME280;3244;42.708;23.288;2023-05-09T10:10:11;95356.03;;;18.10;58.15
6423;BME280;3244;42.708;23.288;2023-05-09T10:12:39;95353.84;;;18.04;56.95
6423;BME280;3244;42.708;23.288;2023-05-09T10:15:08;95342.19;;;17.68;58.13
6423;BME280;3244;42.708;23.288;2023-05-09T10:17:35;95339.34;;;17.57;58.33
6423;BME280;3244;42.708;23.288;2023-05-09T10:20:05;95334.41;;;17.39;58.74
6423;BME280;3244;42.708;23.288;2023-05-09T10:22:33;95356.25;;;17.31;59.78
6423;BME280;3244;42.708;23.288;2023-05-09T10:25:03;95344.63;;;17.09;60.04
6423;BME280;3244;42.708;23.288;2023-05-09T10:27:34;95337.09;;;17.21;59.80
6423;BME280;3244;42.708;23.288;2023-05-09T10:30:03;95334.56;;;17.51;58.85
6423;BME280;3244;42.708;23.288;2023-05-09T10:32:38;95340.00;;;17.61;58.39
6423;BME280;3244;42.708;23.288;2023-05-09T10:35:09;95338.53;;;17.73;57.46
6423;BME280;3244;42.708;23.288;2023-05-09T10:37:38;95341.50;;;17.95;57.34
6423;BME280;3244;42.708;23.288;2023-05-09T10:40:07;95326.28;;;18.06;56.39
6423;BME280;3244;42.708;23.288;2023-05-09T10:42:36;95337.81;;;17.85;57.67
6423;BME280;3244;42.708;23.288;2023-05-09T10:45:04;95352.00;;;17.30;58.95
6423;BME280;3244;42.708;23.288;2023-05-09T10:47:31;95345.22;;;16.98;61.03
6423;BME280;3244;42.708;23.288;2023-05-09T10:49:59;95334.63;;;16.88;61.34
6423;BME280;3244;42.708;23.288;2023-05-09T10:52:31;95337.63;;;16.96;61.38
6423;BME280;3244;42.708;23.288;2023-05-09T10:54:59;95344.88;;;17.20;60.35
6423;BME280;3244;42.708;23.288;2023-05-09T10:57:27;95337.59;;;17.28;60.90
6423;BME280;3244;42.708;23.288;2023-05-09T10:59:54;95344.56;;;17.26;61.21
6423;BME280;3244;42.708;23.288;2023-05-09T11:02:21;95341.06;;;17.11;61.68
6423;BME280;3244;42.708;23.288;2023-05-09T11:05:14;95356.84;;;17.05;60.87
6423;BME280;3244;42.708;23.288;2023-05-09T11:07:43;95353.19;;;17.25;59.96
6423;BME280;3244;42.708;23.288;2023-05-09T11:10:14;95352.72;;;17.48;58.51
6423;BME280;3244;42.708;23.288;2023-05-09T11:12:54;95341.53;;;17.49;59.29
6423;BME280;3244;42.708;23.288;2023-05-09T11:15:21;95333.34;;;17.43;59.62
6423;BME280;3244;42.708;23.288;2023-05-09T11:17:50;95334.56;;;17.51;60.61
6423;BME280;3244;42.708;23.288;2023-05-09T11:20:32;95358.53;;;17.82;58.75
6423;BME280;3244;42.708;23.288;2023-05-09T11:23:03;95346.63;;;17.81;60.13
6423;BME280;3244;42.708;23.288;2023-05-09T11:25:29;95344.25;;;17.92;58.87
6423;BME280;3244;42.708;23.288;2023-05-09T11:27:58;95349.41;;;17.92;58.77
6423;BME280;3244;42.708;23.288;2023-05-09T11:30:35;95354.06;;;17.85;59.04
6423;BME280;3244;42.708;23.288;2023-05-09T11:33:03;95342.69;;;17.44;60.21
6423;BME280;3244;42.708;23.288;2023-05-09T11:35:31;95333.94;;;17.32;59.70
6423;BME280;3244;42.708;23.288;2023-05-09T11:38:01;95345.88;;;17.17;60.06
6423;BME280;3244;42.708;23.288;2023-05-09T11:40:28;95337.75;;;17.25;60.10
6423;BME280;3244;42.708;23.288;2023-05-09T11:42:56;95331.19;;;17.35;59.87
6423;BME280;3244;42.708;23.288;2023-05-09T11:45:24;95342.53;;;17.47;59.13
6423;BME280;3244;42.708;23.288;2023-05-09T11:47:52;95335.56;;;17.49;59.42
6423;BME280;3244;42.708;23.288;2023-05-09T11:50:19;95341.56;;;17.63;59.50
6423;BME280;3244;42.708;23.288;2023-05-09T11:52:47;95337.25;;;17.80;58.86
6423;BME280;3244;42.708;23.288;2023-05-09T11:55:16;95324.28;;;17.51;59.22
6423;BME280;3244;42.708;23.288;2023-05-09T11:57:45;95350.38;;;16.98;61.03
6423;BME280;3244;42.708;23.288;2023-05-09T12:00:16;95344.72;;;16.91;61.85
6423;BME280;3244;42.708;23.288;2023-05-09T12:02:44;95344.81;;;17.06;61.55
6423;BME280;3244;42.708;23.288;2023-05-09T12:05:12;95339.59;;;16.91;62.02
6423;BME280;3244;42.708;23.288;2023-05-09T12:07:39;95348.31;;;17.05;60.66
6423;BME280;3244;42.708;23.288;2023-05-09T12:10:07;95350.44;;;16.81;60.57
6423;BME280;3244;42.708;23.288;2023-05-09T12:12:40;95352.66;;;16.71;61.93
6423;BME280;3244;42.708;23.288;2023-05-09T12:15:08;95355.41;;;16.51;62.70
6423;BME280;3244;42.708;23.288;2023-05-09T12:17:35;95357.09;;;16.52;63.20
6423;BME280;3244;42.708;23.288;2023-05-09T12:20:02;95355.63;;;16.63;63.11
6423;BME280;3244;42.708;23.288;2023-05-09T12:22:30;95352.69;;;16.54;62.86
6423;BME280;3244;42.708;23.288;2023-05-09T12:25:00;95341.59;;;16.20;63.79
6423;BME280;3244;42.708;23.288;2023-05-09T12:27:27;95341.56;;;16.38;64.24
6423;BME280;3244;42.708;23.288;2023-05-09T12:29:55;95344.41;;;16.49;63.55
6423;BME280;3244;42.708;23.288;2023-05-09T12:32:22;95338.03;;;16.73;62.89
6423;BME280;3244;42.708;23.288;2023-05-09T12:34:49;95348.72;;;16.81;62.41
6423;BME280;3244;42.708;23.288;2023-05-09T12:37:18;95338.94;;;16.72;62.79
6423;BME280;3244;42.708;23.288;2023-05-09T12:39:59;95336.41;;;16.55;63.23
6423;BME280;3244;42.708;23.288;2023-05-09T12:42:26;95352.88;;;16.33;63.95
6423;BME280;3244;42.708;23.288;2023-05-09T12:44:53;95335.75;;;16.01;65.11
6423;BME280;3244;42.708;23.288;2023-05-09T12:47:21;95334.84;;;15.85;65.65
6423;BME280;3244;42.708;23.288;2023-05-09T12:49:47;95337.88;;;15.93;65.66
6423;BME280;3244;42.708;23.288;2023-05-09T12:52:16;95322.88;;;16.03;65.46
6423;BME280;3244;42.708;23.288;2023-05-09T12:54:45;95320.72;;;16.11;65.15
6423;BME280;3244;42.708;23.288;2023-05-09T12:57:20;95320.38;;;16.01;65.36
6423;BME280;3244;42.708;23.288;2023-05-09T12:59:47;95321.72;;;16.08;65.27
6423;BME280;3244;42.708;23.288;2023-05-09T13:02:13;95320.69;;;15.95;65.36
6423;BME280;3244;42.708;23.288;2023-05-09T13:04:41;95322.06;;;15.68;66.77
6423;BME280;3244;42.708;23.288;2023-05-09T13:07:08;95331.72;;;15.44;67.38
6423;BME280;3244;42.708;23.288;2023-05-09T13:09:53;95320.19;;;15.35;68.37
6423;BME280;3244;42.708;23.288;2023-05-09T13:12:21;95320.19;;;15.35;68.71
6423;BME280;3244;42.708;23.288;2023-05-09T13:14:48;95318.91;;;15.26;68.40